CCDO2: Spavinaw Creek nr Colcord OK

Data processed at Sun Apr 30 2017 22:25


All information presented herein is the property of the government of the United States of America and may be revised or deleted at any time without prior notice.
Dissemination of this information without the expressed written consent of the Public Affairs Office, Tulsa District U.S. Army Corps of Engineers is strictly prohibited.
These data are gathered electronically and, as presented, have not undergone any form of quality control. These data are not guaranteed to be valid or correct.
Go to home page.
Go to station list.
Go to station map.

Upstream stations:

Downstream station:
Previous Day
Next Day
Current Day
    
SHEF ID:       CCDO2     Spavinaw Creek near Colcord, OK
STATION TYPE:  

               PRECIP     STAGE  RIV-FLOW  WTR-TEMP   DIS-OXY        PH   CONDUCT TURBIDITY  BAT-LOAD
                   in        ft       cfs         C      mg/l        su   umho/cm       NTU      volt
              Ccp-Rev   Ccp-Rev   Ccp-Rev   Ccp-Rev   Ccp-Rev   Ccp-Rev   Ccp-Rev   Ccp-Rev   Ccp-Rev
(US/Central)
04/30 00:00      0.31     15.39     11350     15.89      8.63      7.26       139      ----     12.71
04/30 01:00      0.05     14.96     10283     15.81      8.63      7.26       145      ----     12.71
04/30 02:00      0.00     14.51      9285     15.73      8.62      7.27       152      ----     12.71
04/30 03:00      0.00     14.11      8428     15.65      8.60      7.27       158      ----     12.71
04/30 04:00      0.02     13.74      7680     15.58      8.60      7.28       163      ----     12.71
04/30 05:00      0.00     13.58      7366     15.50      8.61      7.29       167      ----     12.71
04/30 06:00      0.01     13.39      7003     15.42      8.62      7.30       170      ----     12.71
04/30 07:00      0.01     13.17      6590     15.34      8.63      7.31       173      ----     12.71
04/30 08:00      0.00     13.04      6362     15.25      8.64      7.31       174      ----     12.65
04/30 09:00      0.00     12.92      6143     15.18      8.67      7.32       176      ----     12.71
04/30 10:00      0.00     12.83      5985     15.14      8.68      7.33       178      ----     12.60
04/30 11:00      0.00     12.71      5783     15.16      8.70      7.34       179      ----     12.89
04/30 12:00      0.00     12.61      5617     15.18      8.70      7.35       181      ----     13.36
04/30 13:00      0.00     12.51      5450     15.28      8.70      7.35       183      ----     13.71
04/30 14:00      0.00     12.43      5317     15.42      8.69      7.36       184      ----     13.77
04/30 15:00      0.00     12.34      5167     15.42      8.69      7.37       186      ----     13.65
04/30 16:00      0.00     12.24      5008     15.38      8.68      7.37       187      ----     13.59
04/30 17:00      0.00     12.15      4865     15.24      8.68      7.38       188      ----     13.24
04/30 18:00      0.00     12.06      4727     15.13      8.66      7.38       189      ----     13.12
04/30 19:00      0.00     11.99      4623     15.03      8.66      7.39       191      ----     13.00
04/30 20:00      0.00     11.90      4485     14.91      8.67      7.39       192      ----     12.95
04/30 21:00      0.00     11.83      4382     14.77      8.67      7.40       193      ----     12.95
04/30 22:00      0.00     11.75      4268     14.65      8.69      7.40       194      ----     12.89
04/30 23:00      ----      ----      ----      ----      ----      ----      ----      ----      ----